createdAt,value
2019-02-07T00:00:20.948Z,101059.61
2019-02-07T00:02:49.268Z,101057.06
2019-02-07T00:05:17.558Z,101057.06
2019-02-07T00:07:46.031Z,101062.18
2019-02-07T00:10:17.551Z,101062.18
2019-02-07T00:12:45.842Z,101060.48
2019-02-07T00:15:15.346Z,101063.48
2019-02-07T00:17:43.666Z,101058.80
2019-02-07T00:20:14.933Z,101065.17
2019-02-07T00:22:43.229Z,101065.17
2019-02-07T00:25:11.611Z,101064.78
2019-02-07T00:27:39.881Z,101064.78
2019-02-07T00:30:14.834Z,101053.34
2019-02-07T00:32:43.148Z,101063.08
2019-02-07T00:35:11.811Z,101061.81
2019-02-07T00:37:40.097Z,101059.70
2019-02-07T00:40:15.143Z,101060.55
2019-02-07T00:42:43.810Z,101057.56
2019-02-07T00:45:14.297Z,101057.56
2019-02-07T00:47:42.612Z,101061.39
2019-02-07T00:50:13.996Z,101058.44
2019-02-07T00:52:42.276Z,101059.27
2019-02-07T00:55:13.109Z,101060.98
2019-02-07T00:57:41.668Z,101060.99
2019-02-07T01:00:16.079Z,101056.30
2019-02-07T01:02:44.381Z,101056.30
2019-02-07T01:05:13.670Z,101050.80
2019-02-07T01:07:42.039Z,101052.08
2019-02-07T01:10:16.309Z,101048.26
2019-02-07T01:12:44.605Z,101045.70
2019-02-07T01:15:13.452Z,101045.70
2019-02-07T01:17:41.961Z,101038.45
2019-02-07T01:20:13.347Z,101038.45
2019-02-07T01:22:41.681Z,101038.45
2019-02-07T01:25:13.268Z,101032.96
2019-02-07T01:27:41.589Z,101037.19
2019-02-07T01:30:13.301Z,101037.19
2019-02-07T01:32:41.621Z,101029.55
2019-02-07T01:35:09.915Z,101033.80
2019-02-07T01:37:38.191Z,101028.27
2019-02-07T01:40:12.239Z,101024.03
2019-02-07T01:42:40.511Z,101024.03
2019-02-07T01:45:13.381Z,101007.88
2019-02-07T01:47:41.946Z,101019.33
2019-02-07T01:50:15.974Z,101019.33
2019-02-07T01:52:44.248Z,101021.04
2019-02-07T01:55:12.561Z,101020.63
2019-02-07T01:57:40.839Z,101017.67
2019-02-07T02:00:12.225Z,101014.69
2019-02-07T02:02:40.526Z,101015.53
2019-02-07T02:05:11.315Z,101015.97
2019-02-07T02:07:40.067Z,101015.97
2019-02-07T02:10:26.510Z,101016.41
2019-02-07T02:12:54.799Z,100996.89
2019-02-07T02:15:24.987Z,101004.95
2019-02-07T02:17:53.655Z,101002.42
2019-02-07T02:20:24.165Z,101004.97
2019-02-07T02:22:53.278Z,101004.97
2019-02-07T02:25:21.591Z,100997.32
2019-02-07T02:27:49.870Z,100998.98
2019-02-07T02:30:21.146Z,100999.87
2019-02-07T02:32:49.647Z,100993.06
2019-02-07T02:35:18.315Z,100992.63
2019-02-07T02:37:46.604Z,100991.37
2019-02-07T02:40:14.912Z,100996.05
2019-02-07T02:42:43.190Z,100998.61
2019-02-07T02:45:17.188Z,100987.99
2019-02-07T02:47:45.507Z,100994.37
2019-02-07T02:50:16.481Z,100994.37
2019-02-07T02:52:44.763Z,100990.54
2019-02-07T02:55:14.801Z,100989.71
2019-02-07T02:57:43.080Z,100992.67
2019-02-07T03:00:16.423Z,100989.28
2019-02-07T03:02:46.375Z,100991.84
2019-02-07T03:05:16.668Z,100988.88
2019-02-07T03:08:02.581Z,100987.60
2019-02-07T03:10:32.500Z,100984.66
2019-02-07T03:13:17.181Z,100979.14
2019-02-07T03:15:49.704Z,100991.42
2019-02-07T03:18:34.944Z,100991.42
2019-02-07T03:21:10.947Z,100989.76
2019-02-07T03:23:53.104Z,100992.70
2019-02-07T03:26:31.543Z,100996.97
2019-02-07T03:29:04.080Z,100996.97
2019-02-07T03:31:50.149Z,100999.95
2019-02-07T03:34:20.101Z,100999.08
2019-02-07T03:36:52.795Z,100999.52
2019-02-07T03:39:22.726Z,101003.77
2019-02-07T03:41:52.684Z,100995.70
2019-02-07T03:44:25.356Z,100995.70
2019-02-07T03:46:55.281Z,100991.89
2019-02-07T03:49:25.312Z,100986.80
2019-02-07T03:52:01.172Z,100986.80
2019-02-07T03:54:33.770Z,100986.80
2019-02-07T03:57:03.706Z,100988.08
2019-02-07T03:59:48.748Z,100992.73
2019-02-07T04:02:19.536Z,100982.55
2019-02-07T04:04:49.479Z,100984.66
2019-02-07T04:07:25.015Z,100988.48
2019-02-07T04:10:11.072Z,100988.48
2019-02-07T04:12:55.814Z,100987.64
2019-02-07T04:15:31.334Z,100992.30
2019-02-07T04:18:09.975Z,100998.66
2019-02-07T04:20:39.905Z,100995.28
2019-02-07T04:23:18.384Z,100995.28
2019-02-07T04:25:51.058Z,100998.26
2019-02-07T04:28:23.558Z,100991.02
2019-02-07T04:31:09.709Z,100996.12
2019-02-07T04:33:51.828Z,101001.64
2019-02-07T04:36:33.822Z,101001.64
2019-02-07T04:39:12.586Z,100986.80
2019-02-07T04:41:42.495Z,100998.66
2019-02-07T04:44:15.119Z,100994.44
2019-02-07T04:46:51.135Z,100992.73
2019-02-07T04:49:37.502Z,100993.17
2019-02-07T04:52:25.489Z,100995.28
2019-02-07T04:55:01.458Z,100992.30
2019-02-07T04:57:43.243Z,100992.30
2019-02-07T05:00:22.426Z,100992.30
2019-02-07T05:02:52.424Z,100989.35
2019-02-07T05:05:22.310Z,100989.35
2019-02-07T05:07:55.377Z,100989.75
2019-02-07T05:10:25.339Z,100989.35
2019-02-07T05:13:11.112Z,100994.44
2019-02-07T05:15:43.685Z,100985.09
2019-02-07T05:18:13.601Z,100988.08
2019-02-07T05:20:46.497Z,100985.53
2019-02-07T05:23:32.742Z,100979.16
2019-02-07T05:26:05.109Z,100979.16
2019-02-07T05:28:37.633Z,100979.16
2019-02-07T05:31:13.493Z,100968.96
2019-02-07T05:33:46.258Z,100970.66
2019-02-07T05:36:24.965Z,100970.66
2019-02-07T05:39:00.491Z,100969.78
2019-02-07T05:41:36.064Z,100970.64
2019-02-07T05:44:08.714Z,100967.64
2019-02-07T05:46:55.090Z,100971.88
2019-02-07T05:49:41.656Z,100966.34
2019-02-07T05:52:11.569Z,100966.76
2019-02-07T05:54:59.710Z,100966.31
2019-02-07T05:57:32.530Z,100963.31
2019-02-07T06:00:05.134Z,100970.08
2019-02-07T06:02:40.965Z,100970.08
2019-02-07T06:05:14.467Z,100966.66
2019-02-07T06:08:00.415Z,100966.66
2019-02-07T06:10:39.205Z,100956.87
2019-02-07T06:13:17.974Z,100961.52
2019-02-07T06:15:51.297Z,100961.52
2019-02-07T06:18:30.486Z,100956.80
2019-02-07T06:21:03.261Z,100961.47
2019-02-07T06:23:33.179Z,100955.89
2019-02-07T06:26:03.091Z,100956.70
2019-02-07T06:28:33.034Z,100956.70
2019-02-07T06:31:08.968Z,100953.22
2019-02-07T06:33:47.857Z,100953.22
2019-02-07T06:36:17.786Z,100953.18
2019-02-07T06:38:50.815Z,100953.18
2019-02-07T06:41:26.923Z,100959.95
2019-02-07T06:43:56.837Z,100959.95
2019-02-07T06:46:42.733Z,100953.56
2019-02-07T06:49:18.241Z,100947.99
2019-02-07T06:51:50.823Z,100953.08
2019-02-07T06:54:29.516Z,100957.31
2019-02-07T06:56:59.953Z,100953.48
2019-02-07T06:59:31.247Z,100952.69
2019-02-07T07:02:01.186Z,100947.94
2019-02-07T07:04:49.208Z,100945.78
2019-02-07T07:07:37.316Z,100950.41
2019-02-07T07:10:25.339Z,100950.41
2019-02-07T07:13:00.933Z,100952.89
2019-02-07T07:18:44.440Z,100955.36
2019-02-07T07:21:30.462Z,100953.27
2019-02-07T07:24:03.441Z,100959.61
2019-02-07T07:26:48.184Z,100959.61
2019-02-07T07:29:18.112Z,100950.65
2019-02-07T07:32:04.035Z,100962.52
2019-02-07T07:34:49.974Z,100956.13
2019-02-07T07:37:36.195Z,100960.33
2019-02-07T07:40:11.918Z,100972.23
2019-02-07T07:43:00.083Z,100972.23
2019-02-07T07:45:30.419Z,100962.44
2019-02-07T07:48:00.425Z,100963.22
2019-02-07T07:50:32.001Z,100963.22
2019-02-07T07:53:11.482Z,100963.57
2019-02-07T07:55:41.451Z,100963.52
2019-02-07T07:58:14.267Z,100963.06
2019-02-07T08:00:44.177Z,100959.59
2019-02-07T08:03:20.067Z,100959.59
2019-02-07T08:05:55.834Z,100954.42
2019-02-07T08:08:28.220Z,100959.48
2019-02-07T08:11:00.784Z,100959.48
2019-02-07T08:13:39.624Z,100939.42
2019-02-07T08:16:21.552Z,100947.88
2019-02-07T08:18:54.013Z,100947.56
2019-02-07T08:21:29.794Z,100947.56
2019-02-07T08:24:15.883Z,100958.08
2019-02-07T08:26:45.792Z,100948.23
2019-02-07T08:29:21.328Z,100954.56
2019-02-07T08:31:53.846Z,100956.23
2019-02-07T08:34:23.758Z,100956.23
2019-02-07T08:36:57.416Z,100953.52
2019-02-07T08:39:32.901Z,100952.07
2019-02-07T08:42:03.084Z,100959.20
2019-02-07T08:44:44.545Z,100957.73
2019-02-07T08:47:17.587Z,100951.83
2019-02-07T08:50:04.056Z,100951.83
2019-02-07T08:52:50.423Z,100944.94
2019-02-07T08:55:26.063Z,100952.64
2019-02-07T08:58:10.860Z,100949.52
2019-02-07T09:00:40.766Z,100947.16
2019-02-07T09:03:10.683Z,100942.74
2019-02-07T09:05:40.707Z,100950.70
2019-02-07T09:08:19.599Z,100950.23
2019-02-07T09:11:01.611Z,100944.97
2019-02-07T09:13:40.357Z,100954.52
2019-02-07T09:16:15.987Z,100945.84
2019-02-07T09:18:57.968Z,100948.52
2019-02-07T09:21:42.916Z,100948.94
2019-02-07T09:24:15.425Z,100950.73
2019-02-07T09:27:03.285Z,100958.42
2019-02-07T09:29:33.193Z,100955.77
2019-02-07T09:32:05.678Z,100955.32
2019-02-07T09:34:35.767Z,100951.45
2019-02-07T09:37:21.820Z,100951.66
2019-02-07T09:39:57.772Z,100950.88
2019-02-07T09:42:33.265Z,100946.02
2019-02-07T09:45:08.842Z,100945.71
2019-02-07T09:47:54.058Z,100937.95
2019-02-07T09:50:40.180Z,100937.95
2019-02-07T09:53:23.493Z,100935.49
2019-02-07T09:55:50.230Z,100936.67
2019-02-07T09:58:23.421Z,100933.66
2019-02-07T10:00:53.342Z,100930.02
2019-02-07T10:03:32.167Z,100929.36
2019-02-07T10:06:18.344Z,100923.22
2019-02-07T10:08:51.180Z,100925.23
2019-02-07T10:15:04.262Z,100926.07
2019-02-07T10:17:36.758Z,100915.50
2019-02-07T10:20:10.023Z,100917.77
2019-02-07T10:22:39.934Z,100911.37
2019-02-07T10:25:15.654Z,100911.41
2019-02-07T10:27:45.634Z,100905.03
2019-02-07T10:30:17.669Z,100905.03
2019-02-07T10:33:04.132Z,100901.14
2019-02-07T10:35:50.267Z,100898.55
2019-02-07T10:38:20.245Z,100897.13
2019-02-07T10:40:50.577Z,100888.10
2019-02-07T10:43:29.117Z,100883.64
2019-02-07T10:46:15.025Z,100882.31
2019-02-07T10:48:53.672Z,100879.64
2019-02-07T10:51:23.587Z,100865.80
2019-02-07T10:54:10.095Z,100866.92
2019-02-07T10:56:42.659Z,100865.77
2019-02-07T10:59:15.433Z,100862.58
2019-02-07T11:01:51.259Z,100862.58
2019-02-07T11:04:30.141Z,100857.62
2019-02-07T11:07:02.631Z,100857.62
2019-02-07T11:09:32.925Z,100853.63
2019-02-07T11:12:11.781Z,100853.63
2019-02-07T11:15:00.025Z,100849.78
2019-02-07T11:17:45.457Z,100847.95
2019-02-07T11:20:29.981Z,100849.59
2019-02-07T11:22:59.928Z,100846.38
2019-02-07T11:25:45.002Z,100836.41
2019-02-07T11:28:31.347Z,100838.98
2019-02-07T11:31:19.585Z,100826.58
2019-02-07T11:33:49.550Z,100822.05
2019-02-07T11:36:22.202Z,100816.77
2019-02-07T11:39:09.991Z,100815.52
2019-02-07T11:41:51.828Z,100816.63
2019-02-07T11:44:21.795Z,100809.19
2019-02-07T11:46:52.878Z,100811.06
2019-02-07T11:49:25.823Z,100806.66
2019-02-07T11:52:05.380Z,100798.22
2019-02-07T11:54:38.042Z,100790.81
2019-02-07T11:57:10.380Z,100787.48
2019-02-07T11:59:40.304Z,100785.14
2019-02-07T12:02:28.324Z,100778.05
2019-02-07T12:04:58.242Z,100773.38
2019-02-07T12:07:28.230Z,100771.32
2019-02-07T12:10:14.721Z,100766.14
2019-02-07T12:13:00.754Z,100753.75
2019-02-07T12:15:33.530Z,100738.23
2019-02-07T12:18:15.361Z,100739.20
2019-02-07T12:20:53.940Z,100729.58
2019-02-07T12:23:29.844Z,100723.98
2019-02-07T12:25:59.804Z,100716.36
2019-02-07T12:28:44.637Z,100708.90
2019-02-07T12:31:14.596Z,100707.68
2019-02-07T12:33:44.515Z,100690.94
2019-02-07T12:36:17.538Z,100693.61
2019-02-07T12:38:50.189Z,100690.94
2019-02-07T12:41:20.107Z,100690.46
2019-02-07T12:43:50.021Z,100687.18
2019-02-07T12:46:19.961Z,100682.73
2019-02-07T12:48:51.057Z,100686.01
2019-02-07T12:51:38.031Z,100690.55
2019-02-07T12:54:24.156Z,100684.18
2019-02-07T12:57:00.066Z,100683.73
2019-02-07T12:59:47.843Z,100680.41
2019-02-07T13:02:17.791Z,100680.13
2019-02-07T13:05:03.810Z,100672.72
2019-02-07T13:07:50.321Z,100680.37
2019-02-07T13:10:28.955Z,100672.48
2019-02-07T13:13:15.337Z,100667.91
2019-02-07T13:15:57.567Z,100660.80
2019-02-07T13:18:33.163Z,100666.37
2019-02-07T13:21:08.953Z,100661.06
2019-02-07T13:23:55.423Z,100651.54
2019-02-07T13:26:28.087Z,100643.61
2019-02-07T13:29:14.178Z,100645.75
2019-02-07T13:32:02.114Z,100638.36
2019-02-07T13:34:40.770Z,100646.01
2019-02-07T13:37:10.680Z,100644.28
2019-02-07T13:39:46.933Z,100643.40
2019-02-07T13:42:32.816Z,100644.50
2019-02-07T13:45:18.933Z,100636.30
2019-02-07T13:47:49.065Z,100635.56
2019-02-07T13:50:24.666Z,100637.92
2019-02-07T13:53:12.486Z,100633.53
2019-02-07T13:55:42.718Z,100636.12
2019-02-07T13:58:27.639Z,100639.63
2019-02-07T14:01:13.498Z,100635.95
2019-02-07T14:03:49.981Z,100644.09
2019-02-07T14:06:36.603Z,100643.22
2019-02-07T14:09:26.152Z,100645.79
2019-02-07T14:11:58.530Z,100646.05
2019-02-07T14:14:40.432Z,100650.70
2019-02-07T14:17:16.314Z,100654.00
2019-02-07T14:20:03.611Z,100649.02
2019-02-07T14:22:46.650Z,100645.17
2019-02-07T14:25:28.524Z,100648.39
2019-02-07T14:27:58.477Z,100645.88
2019-02-07T14:30:37.219Z,100645.26
2019-02-07T14:33:10.057Z,100645.47
2019-02-07T14:35:56.292Z,100645.00
2019-02-07T14:38:35.076Z,100639.64
2019-02-07T14:41:05.108Z,100644.95
2019-02-07T14:43:41.120Z,100639.97
2019-02-07T14:46:11.536Z,100644.93
2019-02-07T14:48:39.811Z,100649.58
2019-02-07T14:51:08.136Z,100644.18
2019-02-07T14:53:36.591Z,100641.20
2019-02-07T14:56:04.885Z,100632.97
2019-02-07T14:58:33.197Z,100633.88
2019-02-07T15:01:01.496Z,100634.73
2019-02-07T15:03:29.777Z,100633.54
2019-02-07T15:05:58.113Z,100629.16
2019-02-07T15:08:26.471Z,100628.70
2019-02-07T15:10:54.737Z,100624.44
2019-02-07T15:13:23.304Z,100622.02
2019-02-07T15:15:51.583Z,100618.97
2019-02-07T15:18:20.237Z,100626.23
2019-02-07T15:20:48.561Z,100624.27
2019-02-07T15:23:16.865Z,100621.91
2019-02-07T15:25:45.148Z,100618.14
2019-02-07T15:28:13.464Z,100626.73
2019-02-07T15:30:41.739Z,100615.31
2019-02-07T15:33:10.012Z,100621.39
2019-02-07T15:35:42.054Z,100617.26
2019-02-07T15:38:10.335Z,100616.64
2019-02-07T15:40:38.620Z,100616.46
2019-02-07T15:43:06.957Z,100613.19
2019-02-07T15:45:35.237Z,100615.03
2019-02-07T15:48:03.511Z,100610.53
2019-02-07T15:50:37.711Z,100611.46
2019-02-07T15:53:03.464Z,100597.70
2019-02-07T15:55:31.740Z,100611.24
2019-02-07T15:58:00.115Z,100611.24
2019-02-07T16:00:30.371Z,100610.05
2019-02-07T16:03:00.283Z,100609.63
2019-02-07T16:05:29.166Z,100608.86
2019-02-07T16:07:57.515Z,100604.31
2019-02-07T16:10:25.979Z,100604.31
2019-02-07T16:12:54.302Z,100603.48
2019-02-07T16:15:22.589Z,100604.00
2019-02-07T16:17:50.856Z,100607.44
2019-02-07T16:20:21.403Z,100605.97
2019-02-07T16:22:49.742Z,100605.97
2019-02-07T16:25:18.024Z,100611.94
2019-02-07T16:27:46.432Z,100611.15
2019-02-07T16:30:20.046Z,100613.41
2019-02-07T16:32:48.410Z,100612.70
2019-02-07T16:35:19.193Z,100614.53
2019-02-07T16:37:47.554Z,100612.16
2019-02-07T16:40:21.850Z,100618.28
2019-02-07T16:42:49.822Z,100618.09
2019-02-07T16:45:24.730Z,100613.91
2019-02-07T16:47:53.080Z,100604.89
2019-02-07T16:50:34.011Z,100604.89
2019-02-07T16:53:02.277Z,100614.72
2019-02-07T16:55:30.560Z,100614.72
2019-02-07T16:57:58.879Z,100610.61
2019-02-07T17:00:29.658Z,100604.82
2019-02-07T17:02:58.373Z,100609.20
2019-02-07T17:05:26.809Z,100605.47
2019-02-07T17:07:55.153Z,100611.67
2019-02-07T17:10:26.708Z,100604.88
2019-02-07T17:12:55.080Z,100607.98
2019-02-07T17:15:23.669Z,100604.33
2019-02-07T17:17:52.242Z,100603.98
2019-02-07T17:20:28.961Z,100604.45
2019-02-07T17:22:57.640Z,100606.66
2019-02-07T17:25:26.747Z,100605.95
2019-02-07T17:27:55.049Z,100605.34
2019-02-07T17:30:23.878Z,100598.59
2019-02-07T17:32:53.080Z,100593.17
2019-02-07T17:35:21.757Z,100599.66
2019-02-07T17:37:50.181Z,100600.63
2019-02-07T17:40:20.627Z,100596.44
2019-02-07T17:42:48.946Z,100585.81
2019-02-07T17:45:20.395Z,100587.62
2019-02-07T17:47:49.415Z,100585.58
2019-02-07T17:50:36.676Z,100578.83
2019-02-07T17:53:09.433Z,100581.95
2019-02-07T17:55:37.719Z,100581.60
2019-02-07T17:58:07.538Z,100576.55
2019-02-07T18:01:01.492Z,100573.64
2019-02-07T18:03:29.810Z,100575.52
2019-02-07T18:05:58.097Z,100572.60
2019-02-07T18:08:26.398Z,100567.66
2019-02-07T18:10:54.790Z,100577.55
2019-02-07T18:13:23.070Z,100572.52
2019-02-07T18:15:51.364Z,100573.07
2019-02-07T18:18:19.740Z,100576.59
2019-02-07T18:20:48.112Z,100569.36
2019-02-07T18:23:16.467Z,100572.87
2019-02-07T18:25:45.078Z,100562.03
2019-02-07T18:28:13.345Z,100562.03
2019-02-07T18:30:41.626Z,100566.70
2019-02-07T18:33:10.736Z,100552.85
2019-02-07T18:35:39.010Z,100552.85
2019-02-07T18:38:07.376Z,100559.70
2019-02-07T18:40:35.685Z,100559.73
2019-02-07T18:43:04.612Z,100554.25
2019-02-07T18:45:32.899Z,100558.89
2019-02-07T18:48:01.213Z,100555.89
2019-02-07T18:50:34.730Z,100550.83
2019-02-07T18:53:03.027Z,100568.65
2019-02-07T18:55:31.346Z,100555.95
2019-02-07T18:58:00.006Z,100563.53
2019-02-07T19:00:36.062Z,100563.53
2019-02-07T19:03:05.777Z,100566.98
2019-02-07T19:05:34.137Z,100559.73
2019-02-07T19:08:02.436Z,100547.92
2019-02-07T19:10:30.699Z,100561.87
2019-02-07T19:12:59.319Z,100562.73
2019-02-07T19:15:39.596Z,100560.95
2019-02-07T19:18:07.868Z,100559.73
2019-02-07T19:20:36.138Z,100554.97
2019-02-07T19:23:05.292Z,100554.97
2019-02-07T19:25:33.807Z,100560.50
2019-02-07T19:28:02.091Z,100550.03
2019-02-07T19:30:32.243Z,100553.36
2019-02-07T19:33:00.697Z,100552.89
2019-02-07T19:35:28.952Z,100552.89
2019-02-07T19:37:57.312Z,100550.39
2019-02-07T19:40:25.579Z,100544.47
2019-02-07T19:42:54.569Z,100544.47
2019-02-07T19:45:27.758Z,100549.59
2019-02-07T19:47:56.295Z,100542.45
2019-02-07T19:50:28.390Z,100541.20
2019-02-07T19:52:57.152Z,100538.65
2019-02-07T19:55:31.453Z,100544.27
2019-02-07T19:57:59.709Z,100538.33
2019-02-07T20:00:30.353Z,100535.80
2019-02-07T20:02:58.772Z,100535.80
2019-02-07T20:05:27.074Z,100534.07
2019-02-07T20:07:56.102Z,100519.00
2019-02-07T20:10:26.882Z,100519.00
2019-02-07T20:12:55.442Z,100527.05
2019-02-07T20:15:26.626Z,100519.12
2019-02-07T20:17:54.917Z,100519.12
2019-02-07T20:20:23.203Z,100508.16
2019-02-07T20:22:51.625Z,100508.16
2019-02-07T20:25:20.929Z,100514.18
2019-02-07T20:27:49.212Z,100514.18
2019-02-07T20:30:36.158Z,100510.55
2019-02-07T20:33:06.725Z,100507.58
2019-02-07T20:35:35.331Z,100507.58
2019-02-07T20:38:03.812Z,100503.69
2019-02-07T20:40:32.163Z,100495.30
2019-02-07T20:43:00.928Z,100495.36
2019-02-07T20:45:29.235Z,100483.80
2019-02-07T20:47:57.579Z,100479.53
2019-02-07T20:50:27.956Z,100479.11
2019-02-07T20:52:56.374Z,100479.11
2019-02-07T20:55:25.105Z,100469.78
2019-02-07T20:57:54.222Z,100476.64
2019-02-07T21:00:26.064Z,100470.01
2019-02-07T21:02:54.338Z,100470.01
2019-02-07T21:05:22.633Z,100481.45
2019-02-07T21:07:50.945Z,100487.00
2019-02-07T21:10:34.148Z,100484.95
2019-02-07T21:13:02.467Z,100488.42
2019-02-07T21:15:33.228Z,100479.11
2019-02-07T21:18:01.536Z,100480.00
2019-02-07T21:20:31.389Z,100472.37
2019-02-07T21:23:01.014Z,100472.37
2019-02-07T21:25:41.466Z,100468.13
2019-02-07T21:28:10.133Z,100468.13
2019-02-07T21:30:38.408Z,100460.48
2019-02-07T21:33:06.902Z,100458.82
2019-02-07T21:35:35.197Z,100453.91
2019-02-07T21:38:03.840Z,100453.91
2019-02-07T21:40:33.262Z,100461.14
2019-02-07T21:43:01.619Z,100461.14
2019-02-07T21:45:30.281Z,100463.28
2019-02-07T21:47:59.841Z,100463.28
2019-02-07T21:50:33.784Z,100459.92
2019-02-07T21:53:02.291Z,100461.61
2019-02-07T21:55:37.554Z,100462.11
2019-02-07T21:58:09.873Z,100460.89
2019-02-07T22:00:42.107Z,100460.89
2019-02-07T22:03:12.255Z,100456.69
2019-02-07T22:05:41.677Z,100456.69
2019-02-07T22:08:11.652Z,100450.41
2019-02-07T22:10:42.067Z,100450.41
2019-02-07T22:13:13.421Z,100459.32
2019-02-07T22:15:45.819Z,100461.48
2019-02-07T22:18:18.430Z,100461.48
2019-02-07T22:20:46.779Z,100454.72
2019-02-07T22:23:15.101Z,100454.73
2019-02-07T22:25:43.483Z,100454.73
2019-02-07T22:28:11.935Z,100450.94
2019-02-07T22:30:41.872Z,100452.28
2019-02-07T22:33:10.176Z,100447.98
2019-02-07T22:35:39.930Z,100450.86
2019-02-07T22:38:08.359Z,100450.86
2019-02-07T22:40:36.707Z,100443.28
2019-02-07T22:43:07.552Z,100444.08
2019-02-07T22:45:35.865Z,100449.63
2019-02-07T22:48:04.716Z,100444.97
2019-02-07T22:50:34.619Z,100439.94
2019-02-07T22:53:04.604Z,100439.94
2019-02-07T22:55:34.553Z,100443.72
2019-02-07T22:58:06.070Z,100435.62
2019-02-07T23:00:39.308Z,100425.88
2019-02-07T23:03:10.917Z,100430.08
2019-02-07T23:05:40.997Z,100430.08
2019-02-07T23:08:11.262Z,100422.52
2019-02-07T23:10:39.674Z,100419.39
2019-02-07T23:13:10.872Z,100409.16
2019-02-07T23:15:39.353Z,100418.56
2019-02-07T23:18:08.424Z,100416.45
2019-02-07T23:20:36.930Z,100405.77
2019-02-07T23:23:09.758Z,100406.08
2019-02-07T23:25:38.403Z,100406.14
2019-02-07T23:28:06.877Z,100406.14
2019-02-07T23:30:35.179Z,100395.03
2019-02-07T23:33:04.030Z,100404.89
2019-02-07T23:35:32.330Z,100404.97
2019-02-07T23:38:00.602Z,100418.98
2019-02-07T23:40:28.879Z,100418.98
2019-02-07T23:42:57.527Z,100410.45
2019-02-07T23:45:25.830Z,100410.45
2019-02-07T23:47:54.187Z,100406.24
2019-02-07T23:50:22.550Z,100395.28
2019-02-07T23:52:50.919Z,100395.28
2019-02-07T23:55:19.333Z,100402.08
2019-02-07T23:57:47.685Z,100402.16
